Shelbyville, Michigan
Current Conditions -  °F | °C
As of 9:53 PM on Tuesday 25 Nov 2014 (Local Time) from KGRR Reporting Station
Overcast Overcast  
Wind Chill: 23°   Ceiling: 2400
Heat Index: 29°   Visibility: 10mi
Dew Point: 21°   Wind: 6mph
Humidity: 72%   Direction: 200°SSW
Pressure: 30.16"   Gusts: NA
Location:  42.59°N, 85.64°W
Report Text: KGRR 260253Z 20005KT 10SM OVC024 M02/M06 A3016 RMK AO2 SLP224 T10171061 51010 $
Loading
Personal Weather Stations






























Interactive Weather Map New forecast layout! Learn more

10-Day Weather Forecast

Advertisements
Track Severe Weather on mobile